Terminal Aerodrome Forecast
Issued by NWS

Home | Current Version | Previous Version | Text Only | Print | Product List | Glossary On
Versions: 1 2 3 4 5 6 7 8 9 10 11 12 13 14 15 16 17
000
FTUS43 KIND 252321
TAFBMG
TAF
KBMG 252321Z 2600/2624 25008KT P6SM SCT035 SCT250
     FM260200 25004KT P6SM SCT080 BKN250
     FM260800 00000KT 4SM BR SCT080 BKN250
     FM261300 07006KT P6SM SCT035 BKN100
      AMD LTD TO CLD VIS AND WIND 2601/2613=

USA.gov is the U.S. government's official web portal to all federal, state and local government web resources and services.